Accueil
METAR-TAF:

METAR-TAF

Aéroports :

Lleida-Alguaire

Lleida, Espagne

latitude: 41-43-40N, longitude: 000-32-09E, altitude: 350 m

Observation

Le bulletin a été fait il y a 5 heures et 7 minutes, à 06:00 UTC
Vent calme
Température 15°C
Humidité 100%
Pression 1021 hPa
Visibilité: 9000 m
Nuages épars à une hauteur de 6000 ft
pluie faible

METAR: LEDA 200600Z AUTO 00000KT 9000 -RA SCT060 15/15 Q1021

Heure: 13:07 (11:07 UTC)


TAF: absent

Observations et prévisions météorologiques de plus de 4000 aéroports (messages METAR et TAF).

Les stations disponibles sont représentées par des disques jaunes et rouges sur la carte.

Passer la souris dessus pour voir le nom de la station.

Cliquer dessus pour voir les observations et prévisions météorologiques.

Pour changer de carte: cliquez sur les boutons verts avec une croix noire pour zoomer, sur le bouton vert avec un tiret pour effectuer un zoom arrière, ou sur les flèches vertes pour les cartes adjacentes.


METAR-TAF: